Ansonia, CT (06401)

7:42 AM EDT on September 02, 2015 (GMT -0400)
NEWDAYHD.TV Weather | | Change Station
CLOSE
Current Station
Personal Weather Station
Location: Ansonia, CT
Elevation: 285 ft
Nearby Weather Stations
Active Advisory: Special Statement Active Notice: Record Report

Elev 285 ft 41.36 °N, 73.10 °W | Updated 9 minutes ago

Clear
Clear
63.7 °F
Feels Like 63.7 °F
N
0.0
Wind Variable Wind from NE

Today
High -- | Low -- °F
--% Chance of Precip.
Yesterday
High -- | Low -- °F
Precip. -- in
6:19 AM 7:23 PM
Waning Gibbous, 81% visible
Pressure 30.06 in
Visibility 3.0 miles
Clouds Clear
Dew Point 63 °F
Humidity 99%
Rainfall 0.00 in
Snow Depth Not available.
UV 0 out of 12
Pollen 9.00 out of 12
Air Quality Not available.
Flu Activity Not available.
METAR KOXC 021050Z 00000KT 3SM BR SKC 17/13 A3006
Pressure 30.06 in
Visibility 3.0 miles
Clouds Clear
Dew Point 63 °F
Humidity 99%
Rainfall 0.00 in
Snow Depth Not available.
UV 0 out of 12
Pollen 9.00 out of 12
Air Quality Not available.
Flu Activity Not available.
METAR KOXC 021050Z 00000KT 3SM BR SKC 17/13 A3006

10-Day Weather Forecast

×

Almanac

Astronomy

Sep. 02, 2015 Rise Set
Actual Time
Civil Twilight
Nautical Twilight
Astronomical Twilight
Moon
Length of Visible Light
Length of Day
Tomorrow will be .
, % of the Moon is Illuminated

Today's Extremes

State Highs State Lows

Community

WunderPhotos

Upload Photos

1,851,736 photos uploaded!

WunderBlogs® & News

Nearby

Air Quality

  Air Quality AQ Index Pollutant
Not available.

Snow Depth

Station Depth Elevation

Earthquake Activity

City Distance Mag. Time & Date
Minimum magnitude displayed is 2.5.

Coastal Water Temperatures

Place Temperature

Stations

Nearby Weather Stations

Station Location Temp. Windchill Dew Point Humidity Wind Precip. Elev Updated Type
                   
Special Statement
Statement as of 5:20 AM EDT on September 02, 2015

... Patchy dense fog until 8 am...

Clear skies and calm winds will cause areas of fog until around 8
am.

A few patches of dense fog may briefly restrict visibility to 1/4
mile or less.

Motorists should exercise extra caution while driving through
early morning fog.



520 am EDT Wed Sep 2 2015

... Patchy dense fog until 8 am...

Clear skies and calm winds will cause areas of fog until around 8
am.

A few patches of dense fog may briefly restrict visibility to 1/4
mile or less.

Motorists should exercise extra caution while driving through
early morning fog.


520 am EDT Wed Sep 2 2015

... Patchy dense fog until 8 am...

Clear skies and calm winds will cause areas of fog until around 8
am.

A few patches of dense fog may briefly restrict visibility to 1/4
mile or less.

Motorists should exercise extra caution while driving through
early morning fog.